Time;durP1;ratioP1;P1;durP2;ratioP2;P2;SDS_P1;SDS_P2;PMS_P1;PMS_P2;Temp;Humidity;BMP_temperature;BMP_pressure;BME280_temperature;BME280_humidity;BME280_pressure;Samples;Min_cycle;Max_cycle;Signal;HPM_P1;HPM_P2
2021/10/22 00:00:18;;;;;;;9.70;5.63;;;;;;;;;;5144331;27;20050;-74
2021/10/22 00:02:45;;;;;;;8.68;5.70;;;;;;;;;;5144879;27;20050;-73
2021/10/22 00:05:11;;;;;;;9.60;5.70;;;;;;;;;;5144058;27;20031;-73
2021/10/22 00:07:37;;;;;;;9.23;5.63;;;;;;;;;;5144278;27;20030;-73
2021/10/22 00:10:04;;;;;;;9.80;6.03;;;;;;;;;;5144359;27;20019;-73
2021/10/22 00:12:31;;;;;;;10.25;5.75;;;;;;;;;;5144410;27;20321;-74
2021/10/22 00:14:57;;;;;;;12.45;6.18;;;;;;;;;;5142948;27;20022;-71
2021/10/22 00:17:23;;;;;;;9.48;5.88;;;;;;;;;;5144870;27;20478;-73
2021/10/22 00:19:49;;;;;;;11.43;5.60;;;;;;;;;;5144358;27;20039;-73
2021/10/22 00:22:16;;;;;;;11.48;4.97;;;;;;;;;;5142888;27;20022;-70
2021/10/22 00:24:42;;;;;;;13.80;5.53;;;;;;;;;;5147157;27;20098;-71
2021/10/22 00:27:08;;;;;;;13.05;5.65;;;;;;;;;;5147189;27;20015;-71
2021/10/22 00:29:35;;;;;;;9.73;5.15;;;;;;;;;;5147054;27;20473;-71
2021/10/22 00:32:01;;;;;;;12.18;5.05;;;;;;;;;;5147220;27;20030;-71
2021/10/22 00:34:28;;;;;;;10.55;5.88;;;;;;;;;;5144468;27;20068;-71
2021/10/22 00:36:54;;;;;;;7.53;4.60;;;;;;;;;;5147330;27;20014;-71
2021/10/22 00:39:21;;;;;;;14.23;6.03;;;;;;;;;;5146896;27;20030;-71
2021/10/22 00:41:49;;;;;;;12.77;5.45;;;;;;;;;;5146569;27;20027;-71
2021/10/22 00:44:15;;;;;;;14.18;5.53;;;;;;;;;;5147206;27;20022;-71
2021/10/22 00:46:41;;;;;;;10.57;5.80;;;;;;;;;;5147232;27;20018;-71
2021/10/22 00:49:11;;;;;;;10.70;5.53;;;;;;;;;;5145604;27;20022;-71
2021/10/22 00:51:38;;;;;;;11.30;6.03;;;;;;;;;;5145389;27;20030;-71
2021/10/22 00:54:09;;;;;;;10.23;6.70;;;;;;;;;;5146930;27;20038;-71
2021/10/22 00:56:35;;;;;;;8.65;5.95;;;;;;;;;;5143073;27;20029;-72
2021/10/22 00:59:04;;;;;;;9.60;5.55;;;;;;;;;;5134752;27;20529;-72
2021/10/22 01:01:30;;;;;;;13.95;5.95;;;;;;;;;;5123921;27;20142;-71
2021/10/22 01:03:57;;;;;;;12.93;5.82;;;;;;;;;;5130990;27;20381;-72
2021/10/22 01:06:23;;;;;;;9.75;4.88;;;;;;;;;;5144158;27;20481;-71
2021/10/22 01:08:50;;;;;;;15.05;5.57;;;;;;;;;;5124896;27;20091;-72
2021/10/22 01:11:17;;;;;;;8.75;5.60;;;;;;;;;;5123643;27;20049;-72
2021/10/22 01:13:44;;;;;;;11.05;5.70;;;;;;;;;;5121967;27;20102;-72
2021/10/22 01:16:10;;;;;;;9.98;5.10;;;;;;;;;;5132271;27;20209;-72
2021/10/22 01:18:36;;;;;;;12.07;5.60;;;;;;;;;;5144150;27;20023;-71
2021/10/22 01:21:06;;;;;;;8.88;5.28;;;;;;;;;;5140902;27;20497;-71
2021/10/22 01:23:32;;;;;;;9.05;5.20;;;;;;;;;;5143009;27;20019;-71
2021/10/22 01:25:59;;;;;;;12.60;5.28;;;;;;;;;;5144217;27;20023;-72
2021/10/22 01:28:25;;;;;;;6.82;4.85;;;;;;;;;;5141923;27;20344;-72
2021/10/22 01:30:52;;;;;;;13.52;6.35;;;;;;;;;;5143635;27;20030;-72
2021/10/22 01:33:19;;;;;;;8.32;5.07;;;;;;;;;;5143543;27;20015;-72
2021/10/22 01:35:46;;;;;;;12.32;5.55;;;;;;;;;;5143448;27;20473;-71
2021/10/22 01:38:16;;;;;;;9.27;5.70;;;;;;;;;;5143805;27;20476;-72
2021/10/22 01:40:42;;;;;;;13.93;5.38;;;;;;;;;;5126884;27;20033;-72
2021/10/22 01:43:09;;;;;;;9.45;5.10;;;;;;;;;;5123003;27;20031;-72
2021/10/22 01:45:36;;;;;;;7.32;4.65;;;;;;;;;;5122188;27;20080;-72
2021/10/22 01:48:02;;;;;;;10.73;5.10;;;;;;;;;;5122964;27;20076;-71
2021/10/22 01:50:28;;;;;;;9.45;5.18;;;;;;;;;;5126208;27;20022;-72
2021/10/22 01:52:55;;;;;;;8.75;5.10;;;;;;;;;;5132617;27;20054;-72
2021/10/22 01:55:21;;;;;;;12.55;5.28;;;;;;;;;;5122834;28;20035;-72
2021/10/22 01:57:47;;;;;;;10.40;5.15;;;;;;;;;;5122701;27;20023;-72
2021/10/22 02:00:13;;;;;;;15.10;5.00;;;;;;;;;;5130779;27;20047;-72
2021/10/22 02:02:40;;;;;;;11.93;5.40;;;;;;;;;;5146113;27;20041;-72
2021/10/22 02:05:06;;;;;;;7.20;4.50;;;;;;;;;;5145728;27;20022;-71
2021/10/22 02:07:32;;;;;;;7.38;4.50;;;;;;;;;;5149270;27;20087;-72
2021/10/22 02:09:58;;;;;;;8.88;5.20;;;;;;;;;;5150176;27;20083;-72
2021/10/22 02:12:25;;;;;;;10.18;4.82;;;;;;;;;;5148129;27;20627;-71
2021/10/22 02:14:51;;;;;;;6.82;4.85;;;;;;;;;;5149765;27;20521;-72
2021/10/22 02:17:17;;;;;;;9.00;5.05;;;;;;;;;;5147060;27;20091;-71
2021/10/22 02:19:43;;;;;;;9.55;4.78;;;;;;;;;;5147336;27;20034;-71
2021/10/22 02:22:09;;;;;;;9.98;5.10;;;;;;;;;;5147583;27;20019;-73
2021/10/22 02:24:37;;;;;;;8.30;4.78;;;;;;;;;;5145929;27;20018;-72
2021/10/22 02:27:04;;;;;;;8.13;4.93;;;;;;;;;;5147371;27;20135;-72
2021/10/22 02:29:30;;;;;;;7.97;4.55;;;;;;;;;;5146899;27;20023;-71
2021/10/22 02:31:56;;;;;;;7.53;5.28;;;;;;;;;;5147021;27;20030;-71
2021/10/22 02:34:23;;;;;;;7.30;4.68;;;;;;;;;;5145543;27;20018;-71
2021/10/22 02:36:49;;;;;;;7.97;5.10;;;;;;;;;;5147106;27;20034;-71
2021/10/22 02:39:16;;;;;;;7.57;4.60;;;;;;;;;;5145033;27;20114;-71
2021/10/22 02:41:42;;;;;;;13.70;4.78;;;;;;;;;;5146937;27;20031;-72
2021/10/22 02:44:08;;;;;;;10.60;4.53;;;;;;;;;;5145662;27;20029;-72
2021/10/22 02:46:35;;;;;;;10.38;4.75;;;;;;;;;;5146326;27;20079;-71
2021/10/22 02:49:01;;;;;;;8.63;4.53;;;;;;;;;;5146640;27;20035;-72
2021/10/22 02:51:28;;;;;;;8.35;4.22;;;;;;;;;;5146724;27;20022;-72
2021/10/22 02:53:54;;;;;;;9.63;5.05;;;;;;;;;;5145679;27;20110;-72
2021/10/22 02:56:21;;;;;;;12.43;4.72;;;;;;;;;;5145599;27;20078;-71
2021/10/22 02:58:47;;;;;;;8.63;4.57;;;;;;;;;;5141952;27;20142;-72
2021/10/22 03:01:14;;;;;;;8.45;4.63;;;;;;;;;;5125706;27;20601;-71
2021/10/22 03:03:40;;;;;;;12.75;5.22;;;;;;;;;;5139905;27;20026;-72
2021/10/22 03:06:06;;;;;;;10.38;4.65;;;;;;;;;;5142939;27;20033;-71
2021/10/22 03:08:32;;;;;;;7.80;4.13;;;;;;;;;;5143864;27;20082;-72
2021/10/22 03:10:59;;;;;;;10.80;4.28;;;;;;;;;;5142583;27;20390;-71
2021/10/22 03:13:25;;;;;;;7.60;4.43;;;;;;;;;;5143923;27;20051;-72
2021/10/22 03:15:51;;;;;;;4.88;3.63;;;;;;;;;;5143583;27;20035;-71
2021/10/22 03:18:17;;;;;;;10.60;4.30;;;;;;;;;;5142719;27;20023;-71
2021/10/22 03:20:44;;;;;;;9.63;4.25;;;;;;;;;;5139296;27;20201;-72
2021/10/22 03:23:10;;;;;;;7.95;3.88;;;;;;;;;;5138444;27;20015;-72
2021/10/22 03:25:36;;;;;;;8.65;4.07;;;;;;;;;;5146372;27;20051;-72
2021/10/22 03:28:06;;;;;;;5.32;4.22;;;;;;;;;;5144917;27;20023;-72
2021/10/22 03:30:36;;;;;;;8.23;4.55;;;;;;;;;;5145909;27;20055;-72
2021/10/22 03:33:03;;;;;;;12.85;4.80;;;;;;;;;;5145957;27;20029;-72
2021/10/22 03:35:30;;;;;;;9.10;4.28;;;;;;;;;;5146285;27;20533;-71
2021/10/22 03:37:56;;;;;;;12.80;5.05;;;;;;;;;;5144387;27;20106;-71
2021/10/22 03:40:23;;;;;;;9.52;4.13;;;;;;;;;;5145381;27;20039;-71
2021/10/22 03:42:52;;;;;;;12.93;4.47;;;;;;;;;;5145196;27;20035;-71
2021/10/22 03:45:19;;;;;;;9.55;4.22;;;;;;;;;;5145901;27;20606;-71
2021/10/22 03:47:45;;;;;;;8.10;4.30;;;;;;;;;;5143960;27;20023;-71
2021/10/22 03:50:17;;;;;;;8.57;4.35;;;;;;;;;;5145256;27;20034;-71
2021/10/22 03:52:44;;;;;;;8.38;4.50;;;;;;;;;;5145395;27;20035;-71
2021/10/22 03:55:10;;;;;;;9.70;4.20;;;;;;;;;;5133373;27;20495;-72
2021/10/22 03:57:36;;;;;;;6.88;3.80;;;;;;;;;;5122275;27;20037;-72
2021/10/22 04:00:05;;;;;;;7.13;4.53;;;;;;;;;;5137775;27;20050;-72
2021/10/22 04:02:31;;;;;;;9.68;4.50;;;;;;;;;;5143459;27;20019;-72
2021/10/22 04:04:57;;;;;;;8.55;4.35;;;;;;;;;;5142733;27;20037;-72
2021/10/22 04:07:24;;;;;;;7.00;4.15;;;;;;;;;;5141198;27;20498;-72
2021/10/22 04:09:50;;;;;;;9.15;4.20;;;;;;;;;;5142493;27;20030;-72
2021/10/22 04:12:16;;;;;;;10.25;4.50;;;;;;;;;;5140297;27;20375;-72
2021/10/22 04:14:42;;;;;;;9.10;4.50;;;;;;;;;;5143303;27;20015;-72
2021/10/22 04:17:08;;;;;;;9.20;4.55;;;;;;;;;;5141150;27;20027;-72
2021/10/22 04:19:35;;;;;;;6.47;4.30;;;;;;;;;;5142516;27;20046;-72
2021/10/22 04:22:01;;;;;;;6.93;4.28;;;;;;;;;;5142722;27;20038;-72
2021/10/22 04:24:27;;;;;;;6.90;4.13;;;;;;;;;;5122249;27;20024;-72
2021/10/22 04:26:53;;;;;;;12.05;4.65;;;;;;;;;;5121848;27;20409;-72
2021/10/22 04:29:19;;;;;;;11.10;5.20;;;;;;;;;;5120119;27;20156;-72
2021/10/22 04:31:46;;;;;;;10.45;4.70;;;;;;;;;;5119772;27;20077;-72
2021/10/22 04:34:12;;;;;;;11.60;4.60;;;;;;;;;;5121405;27;20447;-71
2021/10/22 04:36:39;;;;;;;5.63;4.30;;;;;;;;;;5120365;27;20392;-72
2021/10/22 04:41:51;;;;;;;9.05;4.40;;;;;;;;;;5141062;27;20053;-72
2021/10/22 04:44:17;;;;;;;11.02;4.90;;;;;;;;;;5142246;27;20037;-72
2021/10/22 04:46:43;;;;;;;8.57;4.40;;;;;;;;;;5142394;27;20033;-72
2021/10/22 04:49:09;;;;;;;10.73;5.15;;;;;;;;;;5121158;27;20287;-72
2021/10/22 04:51:36;;;;;;;10.13;4.90;;;;;;;;;;5121415;27;20463;-73
2021/10/22 04:54:02;;;;;;;10.43;4.55;;;;;;;;;;5134048;27;20496;-72
2021/10/22 04:56:29;;;;;;;11.18;4.80;;;;;;;;;;5140830;27;20554;-72
2021/10/22 04:58:55;;;;;;;7.65;4.90;;;;;;;;;;5141457;27;20047;-73
2021/10/22 05:01:22;;;;;;;11.45;4.82;;;;;;;;;;5142219;27;20034;-72
2021/10/22 05:03:48;;;;;;;8.00;4.70;;;;;;;;;;5141661;27;20050;-72
2021/10/22 05:06:14;;;;;;;10.05;5.05;;;;;;;;;;5137604;27;20432;-73
2021/10/22 05:08:40;;;;;;;12.75;5.25;;;;;;;;;;5141816;27;20053;-73
2021/10/22 05:11:07;;;;;;;11.88;5.05;;;;;;;;;;5141635;27;20105;-72
2021/10/22 05:13:33;;;;;;;7.95;5.07;;;;;;;;;;5139679;27;20128;-72
2021/10/22 05:15:59;;;;;;;12.35;5.97;;;;;;;;;;5141252;27;20033;-72
2021/10/22 05:18:28;;;;;;;9.63;5.70;;;;;;;;;;5139942;27;20060;-72
2021/10/22 05:20:54;;;;;;;13.80;5.15;;;;;;;;;;5141449;27;20179;-72
2021/10/22 05:23:20;;;;;;;15.20;5.80;;;;;;;;;;5140807;27;20020;-72
2021/10/22 05:25:46;;;;;;;11.10;6.00;;;;;;;;;;5131059;27;20819;-72
2021/10/22 05:28:12;;;;;;;12.63;5.78;;;;;;;;;;5134407;27;20023;-71
2021/10/22 05:30:38;;;;;;;13.02;5.50;;;;;;;;;;5130538;27;20035;-72
2021/10/22 05:33:05;;;;;;;10.52;5.30;;;;;;;;;;5132359;27;20455;-72
2021/10/22 05:35:31;;;;;;;11.70;5.18;;;;;;;;;;5132535;27;20059;-72
2021/10/22 05:37:57;;;;;;;13.30;5.15;;;;;;;;;;5131089;27;20030;-72
2021/10/22 05:40:23;;;;;;;15.15;4.97;;;;;;;;;;5131503;27;20062;-72
2021/10/22 05:42:49;;;;;;;11.35;4.30;;;;;;;;;;5132489;27;20029;-72
2021/10/22 05:45:15;;;;;;;13.00;5.80;;;;;;;;;;5134502;27;20028;-72
2021/10/22 05:47:41;;;;;;;16.08;5.97;;;;;;;;;;5129879;27;20035;-72
2021/10/22 05:50:09;;;;;;;10.73;5.35;;;;;;;;;;5133441;27;20022;-73
2021/10/22 05:52:36;;;;;;;16.88;4.68;;;;;;;;;;5130003;27;20027;-72
2021/10/22 05:55:02;;;;;;;13.50;4.38;;;;;;;;;;5131182;27;20027;-72
2021/10/22 05:57:28;;;;;;;13.13;4.63;;;;;;;;;;5130940;27;20107;-73
2021/10/22 05:59:54;;;;;;;11.30;5.00;;;;;;;;;;5132094;27;20043;-72
2021/10/22 06:02:21;;;;;;;12.13;4.95;;;;;;;;;;5134137;27;20027;-72
2021/10/22 06:04:47;;;;;;;13.25;5.22;;;;;;;;;;5133659;27;20022;-72
2021/10/22 06:07:14;;;;;;;14.13;5.53;;;;;;;;;;5132921;27;20045;-73
2021/10/22 06:09:40;;;;;;;13.70;5.20;;;;;;;;;;5132383;27;20463;-72
2021/10/22 06:12:07;;;;;;;18.13;4.93;;;;;;;;;;5131211;27;20023;-72
2021/10/22 06:14:33;;;;;;;14.60;6.30;;;;;;;;;;5133191;27;20458;-72
2021/10/22 06:17:02;;;;;;;11.95;5.50;;;;;;;;;;5133895;27;20022;-72
2021/10/22 06:19:31;;;;;;;12.73;5.07;;;;;;;;;;5130933;27;20051;-72
2021/10/22 06:24:33;;;;;;;13.20;6.00;;;;;;;;;;5129493;27;20034;-72
2021/10/22 06:27:00;;;;;;;14.35;6.60;;;;;;;;;;5132868;27;20034;-73
2021/10/22 06:29:26;;;;;;;16.52;6.53;;;;;;;;;;5133417;27;20055;-73
2021/10/22 06:31:52;;;;;;;15.95;6.43;;;;;;;;;;5133569;27;20131;-72
2021/10/22 06:34:21;;;;;;;13.50;5.68;;;;;;;;;;5132144;27;20027;-72
2021/10/22 06:36:47;;;;;;;28.75;6.32;;;;;;;;;;5129117;27;20367;-72
2021/10/22 06:39:14;;;;;;;24.02;7.45;;;;;;;;;;5131615;27;20030;-72
2021/10/22 06:41:40;;;;;;;27.45;6.63;;;;;;;;;;5131807;27;20039;-72
2021/10/22 06:44:06;;;;;;;27.42;6.18;;;;;;;;;;5132340;27;20019;-73
2021/10/22 06:46:33;;;;;;;29.88;7.22;;;;;;;;;;5130787;27;20034;-73
2021/10/22 06:48:59;;;;;;;29.33;6.53;;;;;;;;;;5127428;27;20016;-72
2021/10/22 06:51:26;;;;;;;25.98;6.78;;;;;;;;;;5130515;27;20031;-73
2021/10/22 06:53:52;;;;;;;35.85;6.43;;;;;;;;;;5127712;27;20023;-72
2021/10/22 06:56:20;;;;;;;34.63;6.68;;;;;;;;;;5135014;27;20036;-72
2021/10/22 06:58:46;;;;;;;27.25;6.13;;;;;;;;;;5132506;27;20045;-73
2021/10/22 07:01:12;;;;;;;34.97;6.80;;;;;;;;;;5132318;27;20450;-72
2021/10/22 07:03:40;;;;;;;34.90;6.93;;;;;;;;;;5133164;27;20458;-73
2021/10/22 07:08:52;;;;;;;31.80;6.90;;;;;;;;;;5132928;27;20069;-72
2021/10/22 07:11:19;;;;;;;39.88;8.18;;;;;;;;;;5130893;27;20027;-72
2021/10/22 07:13:56;;;;;;;33.95;7.68;;;;;;;;;;5135205;27;20031;-72
2021/10/22 07:16:23;;;;;;;32.42;7.25;;;;;;;;;;5135016;27;20512;-73
2021/10/22 07:18:50;;;;;;;38.03;8.18;;;;;;;;;;5130466;27;20031;-72
2021/10/22 07:21:17;;;;;;;33.97;6.57;;;;;;;;;;5131929;27;20035;-72
2021/10/22 07:23:46;;;;;;;29.40;6.70;;;;;;;;;;5132641;27;20054;-73
2021/10/22 07:26:13;;;;;;;33.67;7.50;;;;;;;;;;5131646;27;20027;-72
2021/10/22 07:28:39;;;;;;;38.17;6.40;;;;;;;;;;5132711;27;20022;-73
2021/10/22 07:31:06;;;;;;;31.33;6.78;;;;;;;;;;5133454;27;20062;-72
2021/10/22 07:33:32;;;;;;;33.45;6.70;;;;;;;;;;5132079;27;20058;-72
2021/10/22 07:35:58;;;;;;;34.05;6.18;;;;;;;;;;5133511;27;20019;-72
2021/10/22 07:38:25;;;;;;;36.08;6.90;;;;;;;;;;5132271;27;20027;-73
2021/10/22 07:40:51;;;;;;;29.55;6.60;;;;;;;;;;5131055;27;20383;-72
2021/10/22 07:43:20;;;;;;;36.13;6.53;;;;;;;;;;5131061;27;20018;-72
2021/10/22 07:45:46;;;;;;;31.50;5.97;;;;;;;;;;5132673;27;20035;-72
2021/10/22 07:48:14;;;;;;;26.38;5.85;;;;;;;;;;5132206;27;20517;-72
2021/10/22 07:50:40;;;;;;;34.97;6.65;;;;;;;;;;5131273;27;20514;-73
2021/10/22 07:53:06;;;;;;;30.23;6.90;;;;;;;;;;5126841;27;20034;-73
2021/10/22 07:55:35;;;;;;;20.02;5.22;;;;;;;;;;5130182;27;20058;-73
2021/10/22 07:58:01;;;;;;;29.85;6.85;;;;;;;;;;5131280;27;20340;-72
2021/10/22 08:00:28;;;;;;;37.92;6.60;;;;;;;;;;5126811;27;20051;-73
2021/10/22 08:02:54;;;;;;;27.42;6.68;;;;;;;;;;5132808;27;20102;-72
2021/10/22 08:05:21;;;;;;;25.63;6.25;;;;;;;;;;5130469;27;20462;-72
2021/10/22 08:07:48;;;;;;;37.92;7.15;;;;;;;;;;5129627;27;20030;-72
2021/10/22 08:10:14;;;;;;;31.27;6.72;;;;;;;;;;5132024;27;20211;-72
2021/10/22 08:12:41;;;;;;;31.10;7.35;;;;;;;;;;5132620;27;20600;-74
2021/10/22 08:15:07;;;;;;;34.22;7.35;;;;;;;;;;5131826;27;20035;-72
2021/10/22 08:17:33;;;;;;;34.50;7.75;;;;;;;;;;5133272;27;20055;-72
2021/10/22 08:20:09;;;;;;;38.50;7.03;;;;;;;;;;5130491;27;20035;-72
2021/10/22 08:22:36;;;;;;;27.17;6.50;;;;;;;;;;5136234;27;20019;-72
2021/10/22 08:25:04;;;;;;;29.00;6.35;;;;;;;;;;5133083;27;20035;-72
2021/10/22 08:27:41;;;;;;;31.77;7.68;;;;;;;;;;5128844;27;20114;-72
2021/10/22 08:30:11;;;;;;;35.40;6.93;;;;;;;;;;5131309;27;20027;-72
2021/10/22 08:32:38;;;;;;;26.23;7.25;;;;;;;;;;5131534;27;20022;-72
2021/10/22 08:35:05;;;;;;;34.15;5.40;;;;;;;;;;5127186;27;20023;-71
2021/10/22 08:37:32;;;;;;;27.60;6.25;;;;;;;;;;5132570;27;20031;-71
2021/10/22 08:39:58;;;;;;;23.83;6.25;;;;;;;;;;5128107;27;20076;-73
2021/10/22 08:42:25;;;;;;;29.08;7.05;;;;;;;;;;5128681;27;20091;-72
2021/10/22 08:44:53;;;;;;;26.38;6.22;;;;;;;;;;5130334;27;20033;-72
2021/10/22 08:47:37;;;;;;;19.92;5.35;;;;;;;;;;5132310;27;20042;-72
2021/10/22 08:50:06;;;;;;;22.60;6.43;;;;;;;;;;5131517;27;20038;-72
2021/10/22 08:52:33;;;;;;;29.65;6.30;;;;;;;;;;5129169;27;20416;-71
2021/10/22 08:55:00;;;;;;;29.75;5.55;;;;;;;;;;5131257;27;20577;-72
2021/10/22 08:57:27;;;;;;;18.50;5.60;;;;;;;;;;5128257;27;20114;-72
2021/10/22 08:59:56;;;;;;;32.33;6.22;;;;;;;;;;5132329;27;20609;-72
2021/10/22 09:02:25;;;;;;;32.50;6.97;;;;;;;;;;5128568;27;20027;-72
2021/10/22 09:04:51;;;;;;;29.98;6.18;;;;;;;;;;5135284;27;20047;-72
2021/10/22 09:07:19;;;;;;;27.83;5.45;;;;;;;;;;5133432;27;20038;-72
2021/10/22 09:09:46;;;;;;;26.75;5.75;;;;;;;;;;5137195;27;20023;-72
2021/10/22 09:12:13;;;;;;;24.20;5.63;;;;;;;;;;5132562;27;20064;-71
2021/10/22 09:14:57;;;;;;;25.83;6.35;;;;;;;;;;5133142;27;20061;-72
2021/10/22 09:17:33;;;;;;;22.23;5.85;;;;;;;;;;5131570;27;20532;-72
2021/10/22 09:19:59;;;;;;;25.02;5.97;;;;;;;;;;5130417;27;20027;-72
2021/10/22 09:22:31;;;;;;;20.52;5.55;;;;;;;;;;5127679;27;20023;-72
2021/10/22 09:25:01;;;;;;;25.55;5.10;;;;;;;;;;5123272;27;20031;-72
2021/10/22 09:27:31;;;;;;;20.92;5.03;;;;;;;;;;5134738;27;20030;-72
2021/10/22 09:29:57;;;;;;;21.05;5.63;;;;;;;;;;5129799;27;20023;-72
2021/10/22 09:32:24;;;;;;;20.42;6.43;;;;;;;;;;5131175;27;20175;-72
2021/10/22 09:34:53;;;;;;;20.17;5.38;;;;;;;;;;5134024;27;20034;-72
2021/10/22 09:37:19;;;;;;;16.27;4.80;;;;;;;;;;5129239;27;20027;-72
2021/10/22 09:39:45;;;;;;;22.45;5.32;;;;;;;;;;5132030;27;20060;-72
2021/10/22 09:42:18;;;;;;;24.35;5.38;;;;;;;;;;5132770;27;20041;-72
2021/10/22 09:44:45;;;;;;;19.13;5.35;;;;;;;;;;5128288;27;20035;-73
2021/10/22 09:47:16;;;;;;;18.58;4.75;;;;;;;;;;5131520;27;20038;-72
2021/10/22 09:49:47;;;;;;;21.90;5.72;;;;;;;;;;5129342;27;20034;-72
2021/10/22 09:52:27;;;;;;;19.58;4.43;;;;;;;;;;5135069;27;20473;-71
2021/10/22 09:55:10;;;;;;;12.15;4.80;;;;;;;;;;5129134;27;20035;-72
2021/10/22 09:57:37;;;;;;;20.92;5.75;;;;;;;;;;5129764;27;20481;-72
2021/10/22 10:00:07;;;;;;;15.10;5.07;;;;;;;;;;5127394;27;20131;-71
2021/10/22 10:02:35;;;;;;;19.70;5.43;;;;;;;;;;5126820;27;20496;-72
2021/10/22 10:05:02;;;;;;;16.27;5.00;;;;;;;;;;5128946;27;20159;-72
2021/10/22 10:07:28;;;;;;;24.23;5.93;;;;;;;;;;5127455;27;20055;-71
2021/10/22 10:09:55;;;;;;;10.75;4.57;;;;;;;;;;5130713;27;20406;-71
2021/10/22 10:12:21;;;;;;;19.00;5.43;;;;;;;;;;5128566;27;20114;-72
2021/10/22 10:14:47;;;;;;;21.13;5.18;;;;;;;;;;5132521;27;20057;-72
2021/10/22 10:17:14;;;;;;;14.45;4.45;;;;;;;;;;5129218;27;20031;-71
2021/10/22 10:19:46;;;;;;;13.93;4.57;;;;;;;;;;5128461;27;20152;-71
2021/10/22 10:22:13;;;;;;;14.70;4.45;;;;;;;;;;5130950;27;20042;-71
2021/10/22 10:24:39;;;;;;;20.90;5.50;;;;;;;;;;5125462;27;20015;-72
2021/10/22 10:27:08;;;;;;;21.63;5.10;;;;;;;;;;5129392;27;20478;-72
2021/10/22 10:29:38;;;;;;;23.08;4.72;;;;;;;;;;5132240;27;20119;-74
2021/10/22 10:32:06;;;;;;;14.55;4.57;;;;;;;;;;5132632;27;20080;-73
2021/10/22 10:34:36;;;;;;;17.13;4.90;;;;;;;;;;5134210;27;20378;-74
2021/10/22 10:37:04;;;;;;;23.60;5.50;;;;;;;;;;5132852;27;20018;-73
2021/10/22 10:39:45;;;;;;;19.70;5.60;;;;;;;;;;5134350;27;20535;-73
2021/10/22 10:42:25;;;;;;;15.65;4.50;;;;;;;;;;5131456;27;20503;-74
2021/10/22 10:44:52;;;;;;;18.30;4.47;;;;;;;;;;5129964;27;20039;-74
2021/10/22 10:47:27;;;;;;;22.67;5.20;;;;;;;;;;5132977;27;20248;-74
2021/10/22 10:49:53;;;;;;;16.63;4.22;;;;;;;;;;5132387;27;20065;-74
2021/10/22 10:52:38;;;;;;;15.68;4.55;;;;;;;;;;5132771;27;20046;-74
2021/10/22 10:57:59;;;;;;;15.38;4.43;;;;;;;;;;5128875;27;20100;-74
2021/10/22 11:00:34;;;;;;;18.92;4.10;;;;;;;;;;5129886;27;20261;-73
2021/10/22 11:03:03;;;;;;;14.30;4.80;;;;;;;;;;5130219;27;20035;-73
2021/10/22 11:05:46;;;;;;;16.92;4.53;;;;;;;;;;5131989;27;20068;-73
2021/10/22 11:08:16;;;;;;;12.38;4.28;;;;;;;;;;5133495;27;20079;-73
2021/10/22 11:11:01;;;;;;;13.85;4.18;;;;;;;;;;5134576;27;20495;-72
2021/10/22 11:13:43;;;;;;;15.98;4.47;;;;;;;;;;5140608;27;20419;-73
2021/10/22 11:16:26;;;;;;;15.10;4.10;;;;;;;;;;5130789;27;20067;-73
2021/10/22 11:18:53;;;;;;;12.25;3.92;;;;;;;;;;5131156;27;20045;-72
2021/10/22 11:21:23;;;;;;;20.15;4.28;;;;;;;;;;5133158;27;20037;-73
2021/10/22 11:23:49;;;;;;;9.77;4.18;;;;;;;;;;5130531;27;20052;-73
2021/10/22 11:26:20;;;;;;;17.08;4.25;;;;;;;;;;5128044;27;20102;-73
2021/10/22 11:28:56;;;;;;;15.88;4.82;;;;;;;;;;5132999;27;20019;-73
2021/10/22 11:31:42;;;;;;;15.18;4.45;;;;;;;;;;5134625;27;20109;-73
2021/10/22 11:34:13;;;;;;;14.18;4.22;;;;;;;;;;5138058;27;20507;-72
2021/10/22 11:36:39;;;;;;;15.07;4.15;;;;;;;;;;5135810;27;20033;-72
2021/10/22 11:39:22;;;;;;;11.10;3.63;;;;;;;;;;5131517;27;20529;-73
2021/10/22 11:42:07;;;;;;;18.98;4.75;;;;;;;;;;5138523;27;20031;-72
2021/10/22 11:44:35;;;;;;;18.63;4.28;;;;;;;;;;5136003;27;20031;-72
2021/10/22 11:47:01;;;;;;;14.95;4.05;;;;;;;;;;5138528;27;20576;-72
2021/10/22 11:49:28;;;;;;;15.15;4.50;;;;;;;;;;5137025;27;20534;-72
2021/10/22 11:51:56;;;;;;;10.88;4.53;;;;;;;;;;5134395;27;20031;-72
2021/10/22 11:54:37;;;;;;;13.90;3.92;;;;;;;;;;5131840;27;20027;-72
2021/10/22 11:57:04;;;;;;;14.13;3.95;;;;;;;;;;5143162;27;20395;-70
2021/10/22 11:59:32;;;;;;;9.77;4.20;;;;;;;;;;5141406;27;20039;-71
2021/10/22 12:02:06;;;;;;;10.82;4.07;;;;;;;;;;5133709;27;20035;-74
2021/10/22 12:04:32;;;;;;;17.27;4.80;;;;;;;;;;5135642;27;20034;-72
2021/10/22 12:07:00;;;;;;;17.05;4.22;;;;;;;;;;5139811;27;20617;-72
2021/10/22 12:09:33;;;;;;;13.63;4.25;;;;;;;;;;5129218;27;20263;-72
2021/10/22 12:12:02;;;;;;;14.23;4.15;;;;;;;;;;5131943;27;20019;-72
2021/10/22 12:14:35;;;;;;;13.75;4.35;;;;;;;;;;5134805;27;20038;-73
2021/10/22 12:17:10;;;;;;;15.27;3.90;;;;;;;;;;5135075;27;20030;-73
2021/10/22 12:19:37;;;;;;;14.30;4.63;;;;;;;;;;5141604;27;20834;-72
2021/10/22 12:22:04;;;;;;;13.38;4.43;;;;;;;;;;5132514;27;20479;-71
2021/10/22 12:24:44;;;;;;;13.65;4.57;;;;;;;;;;5130281;27;20053;-71
2021/10/22 12:27:12;;;;;;;15.05;4.10;;;;;;;;;;5138698;27;20019;-72
2021/10/22 12:29:59;;;;;;;15.02;4.28;;;;;;;;;;5132008;27;20401;-72
2021/10/22 12:32:38;;;;;;;19.48;4.95;;;;;;;;;;5132958;27;20874;-72
2021/10/22 12:35:05;;;;;;;14.70;4.38;;;;;;;;;;5134325;27;20046;-73
2021/10/22 12:37:41;;;;;;;15.60;4.07;;;;;;;;;;5135460;27;20022;-72
2021/10/22 12:40:15;;;;;;;18.85;4.93;;;;;;;;;;5134082;27;20054;-73
2021/10/22 12:42:41;;;;;;;13.98;4.32;;;;;;;;;;5131069;27;20035;-72
2021/10/22 12:45:20;;;;;;;23.55;5.05;;;;;;;;;;5134974;27;20567;-72
2021/10/22 12:47:47;;;;;;;16.13;4.70;;;;;;;;;;5136703;27;20015;-73
2021/10/22 12:50:15;;;;;;;20.15;4.80;;;;;;;;;;5133474;27;20911;-73
2021/10/22 12:52:41;;;;;;;19.58;5.07;;;;;;;;;;5132965;27;20076;-72
2021/10/22 12:55:20;;;;;;;14.52;4.82;;;;;;;;;;5130912;27;20414;-73
2021/10/22 12:57:46;;;;;;;13.15;4.60;;;;;;;;;;5131928;27;20062;-73
2021/10/22 13:00:21;;;;;;;17.77;4.90;;;;;;;;;;5128390;27;20514;-74
2021/10/22 13:02:48;;;;;;;15.38;4.63;;;;;;;;;;5128539;27;20031;-73
2021/10/22 13:05:22;;;;;;;19.67;4.82;;;;;;;;;;5136256;27;20095;-72
2021/10/22 13:08:31;;;;;;;14.30;4.43;;;;;;;;;;5130049;27;20031;-73
2021/10/22 13:12:00;;;;;;;17.17;4.57;;;;;;;;;;5131320;27;20043;-74
2021/10/22 13:22:05;;;;;;;15.00;4.50;;;;;;;;;;5134386;27;20067;-73
2021/10/22 13:24:31;;;;;;;15.45;4.88;;;;;;;;;;5133914;27;20019;-73
2021/10/22 13:26:59;;;;;;;16.52;4.25;;;;;;;;;;5131449;27;20042;-73
2021/10/22 13:29:25;;;;;;;17.45;4.55;;;;;;;;;;5131410;27;20033;-74
2021/10/22 13:31:52;;;;;;;22.75;4.55;;;;;;;;;;5130178;27;20031;-74
2021/10/22 13:34:18;;;;;;;14.68;4.55;;;;;;;;;;5131843;27;20019;-74
2021/10/22 13:36:45;;;;;;;14.13;4.47;;;;;;;;;;5133303;27;20027;-73
2021/10/22 13:39:12;;;;;;;16.48;4.80;;;;;;;;;;5133278;27;20094;-73
2021/10/22 13:41:38;;;;;;;24.77;5.43;;;;;;;;;;5130814;27;20027;-73
2021/10/22 13:44:05;;;;;;;15.25;4.45;;;;;;;;;;5131523;27;20395;-73
2021/10/22 13:46:31;;;;;;;24.17;6.03;;;;;;;;;;5132118;27;20057;-74
2021/10/22 13:48:58;;;;;;;12.15;4.53;;;;;;;;;;5135545;27;20131;-73
2021/10/22 13:51:25;;;;;;;20.80;5.05;;;;;;;;;;5134710;27;20102;-72
2021/10/22 13:53:52;;;;;;;22.23;4.22;;;;;;;;;;5131423;27;20027;-73
2021/10/22 13:56:18;;;;;;;14.35;4.40;;;;;;;;;;5137972;27;20164;-73
2021/10/22 13:58:44;;;;;;;17.27;4.30;;;;;;;;;;5130738;27;20026;-72
2021/10/22 14:01:10;;;;;;;13.70;4.68;;;;;;;;;;5132297;27;20527;-73
2021/10/22 14:03:37;;;;;;;12.02;3.60;;;;;;;;;;5139161;27;20809;-73
2021/10/22 14:06:04;;;;;;;29.73;4.32;;;;;;;;;;5140704;27;20079;-73
2021/10/22 14:08:31;;;;;;;23.17;5.70;;;;;;;;;;5140661;27;20027;-74
2021/10/22 14:11:03;;;;;;;12.18;3.90;;;;;;;;;;5140260;27;20512;-74
2021/10/22 14:13:35;;;;;;;23.48;4.57;;;;;;;;;;5136663;27;20019;-74
2021/10/22 14:16:26;;;;;;;9.77;4.38;;;;;;;;;;5137644;27;20042;-74
2021/10/22 14:29:24;;;;;;;14.27;4.53;;;;;;;;;;5137627;27;20088;-74
2021/10/22 14:31:50;;;;;;;18.05;4.28;;;;;;;;;;5138863;27;20368;-72
2021/10/22 14:34:16;;;;;;;13.98;4.10;;;;;;;;;;5133197;27;20026;-72
2021/10/22 14:36:44;;;;;;;13.63;4.25;;;;;;;;;;5143320;27;20409;-72
2021/10/22 14:39:10;;;;;;;11.15;4.07;;;;;;;;;;5139023;27;20046;-72
2021/10/22 14:41:38;;;;;;;7.10;3.92;;;;;;;;;;5139295;27;20121;-72
2021/10/22 14:44:06;;;;;;;17.00;4.60;;;;;;;;;;5139384;27;20152;-73
2021/10/22 14:46:47;;;;;;;19.30;5.07;;;;;;;;;;5138405;27;20050;-72
2021/10/22 14:49:18;;;;;;;12.63;4.75;;;;;;;;;;5140348;27;20568;-73
2021/10/22 14:54:18;;;;;;;11.23;4.18;;;;;;;;;;5140565;27;19914;-73
2021/10/22 14:56:44;;;;;;;11.50;4.22;;;;;;;;;;5137905;27;20495;-73
2021/10/22 14:59:11;;;;;;;20.92;5.53;;;;;;;;;;5136870;27;20413;-72
2021/10/22 15:01:38;;;;;;;13.93;4.90;;;;;;;;;;5140296;27;20522;-73
2021/10/22 15:04:04;;;;;;;12.80;4.82;;;;;;;;;;5134542;27;20031;-73
2021/10/22 15:06:32;;;;;;;12.07;4.80;;;;;;;;;;5134714;27;20022;-72
2021/10/22 15:08:58;;;;;;;17.73;4.80;;;;;;;;;;5139369;27;20547;-72
2021/10/22 15:11:24;;;;;;;8.90;4.70;;;;;;;;;;5137997;27;20026;-73